sensor_id;sensor_type;location;lat;lon;timestamp;temperature;humidity
73833;SHT30;62179;48.444;-4.464;2024-01-15T12:57:45;12.26;63.52
73833;SHT30;62179;48.444;-4.464;2024-01-15T13:00:11;12.43;60.33
73833;SHT30;62179;48.444;-4.464;2024-01-15T13:02:40;12.58;58.63
73833;SHT30;62179;48.444;-4.464;2024-01-15T13:05:08;12.71;60.78
73833;SHT30;62179;48.444;-4.464;2024-01-15T13:07:34;12.78;63.43
73833;SHT30;62179;48.444;-4.464;2024-01-15T13:10:00;12.77;62.50
73833;SHT30;62179;48.444;-4.464;2024-01-15T13:12:25;12.70;62.19
73833;SHT30;62179;48.444;-4.464;2024-01-15T13:14:51;12.63;63.26
73833;SHT30;62179;48.444;-4.464;2024-01-15T13:17:16;12.54;61.50
73833;SHT30;62179;48.444;-4.464;2024-01-15T13:19:42;12.50;60.31
73833;SHT30;62179;48.444;-4.464;2024-01-15T13:22:07;12.43;61.91
73833;SHT30;62179;48.444;-4.464;2024-01-15T13:24:34;12.39;62.96
73833;SHT30;62179;48.444;-4.464;2024-01-15T13:27:02;12.37;60.81
73833;SHT30;62179;48.444;-4.464;2024-01-15T13:29:28;12.40;62.19
73833;SHT30;62179;48.444;-4.464;2024-01-15T13:31:53;12.44;63.09
73833;SHT30;62179;48.444;-4.464;2024-01-15T13:34:19;12.47;62.30
73833;SHT30;62179;48.444;-4.464;2024-01-15T13:36:44;12.41;61.04
73833;SHT30;62179;48.444;-4.464;2024-01-15T13:39:10;12.34;61.28
73833;SHT30;62179;48.444;-4.464;2024-01-15T13:41:36;12.32;59.53
73833;SHT30;62179;48.444;-4.464;2024-01-15T13:44:02;12.25;60.44
73833;SHT30;62179;48.444;-4.464;2024-01-15T13:46:28;12.13;62.61
73833;SHT30;62179;48.444;-4.464;2024-01-15T13:48:56;12.12;62.60
73833;SHT30;62179;48.444;-4.464;2024-01-15T13:51:22;12.12;62.98
73833;SHT30;62179;48.444;-4.464;2024-01-15T13:53:51;12.30;61.11
73833;SHT30;62179;48.444;-4.464;2024-01-15T13:56:16;12.36;64.83
73833;SHT30;62179;48.444;-4.464;2024-01-15T13:58:42;12.41;61.86
73833;SHT30;62179;48.444;-4.464;2024-01-15T14:01:08;12.44;61.74
73833;SHT30;62179;48.444;-4.464;2024-01-15T14:03:34;12.41;63.48
73833;SHT30;62179;48.444;-4.464;2024-01-15T14:06:00;12.34;61.36
73833;SHT30;62179;48.444;-4.464;2024-01-15T14:08:28;12.23;61.61
73833;SHT30;62179;48.444;-4.464;2024-01-15T14:10:54;12.10;57.65
73833;SHT30;62179;48.444;-4.464;2024-01-15T14:13:21;12.08;62.37
73833;SHT30;62179;48.444;-4.464;2024-01-15T14:15:47;12.13;62.68
73833;SHT30;62179;48.444;-4.464;2024-01-15T14:18:14;12.00;58.10
73833;SHT30;62179;48.444;-4.464;2024-01-15T14:20:42;11.89;62.26
73833;SHT30;62179;48.444;-4.464;2024-01-15T14:23:10;11.96;63.24
73833;SHT30;62179;48.444;-4.464;2024-01-15T14:25:36;12.09;64.72
73833;SHT30;62179;48.444;-4.464;2024-01-15T14:28:04;12.13;62.30
73833;SHT30;62179;48.444;-4.464;2024-01-15T14:30:30;12.09;63.33
73833;SHT30;62179;48.444;-4.464;2024-01-15T14:32:55;12.05;63.40
73833;SHT30;62179;48.444;-4.464;2024-01-15T14:35:24;12.02;59.98
73833;SHT30;62179;48.444;-4.464;2024-01-15T14:37:49;11.99;61.92
73833;SHT30;62179;48.444;-4.464;2024-01-15T14:40:15;11.95;58.21
73833;SHT30;62179;48.444;-4.464;2024-01-15T14:42:41;11.93;63.14
73833;SHT30;62179;48.444;-4.464;2024-01-15T14:45:07;11.95;64.41
73833;SHT30;62179;48.444;-4.464;2024-01-15T14:47:41;11.99;64.65
73833;SHT30;62179;48.444;-4.464;2024-01-15T14:50:07;11.88;62.02
73833;SHT30;62179;48.444;-4.464;2024-01-15T14:52:33;11.79;62.84
73833;SHT30;62179;48.444;-4.464;2024-01-15T14:55:00;11.75;63.17
73833;SHT30;62179;48.444;-4.464;2024-01-15T14:57:28;11.74;62.37
73833;SHT30;62179;48.444;-4.464;2024-01-15T14:59:54;11.67;65.08
73833;SHT30;62179;48.444;-4.464;2024-01-15T15:02:20;11.61;63.88
73833;SHT30;62179;48.444;-4.464;2024-01-15T15:04:48;11.57;64.27
73833;SHT30;62179;48.444;-4.464;2024-01-15T15:07:14;11.54;64.07
73833;SHT30;62179;48.444;-4.464;2024-01-15T15:09:39;11.50;64.38
73833;SHT30;62179;48.444;-4.464;2024-01-15T15:12:05;11.44;64.56
73833;SHT30;62179;48.444;-4.464;2024-01-15T15:14:31;11.41;64.58
73833;SHT30;62179;48.444;-4.464;2024-01-15T15:17:05;11.41;63.54
73833;SHT30;62179;48.444;-4.464;2024-01-15T15:19:31;11.38;64.15
73833;SHT30;62179;48.444;-4.464;2024-01-15T15:21:57;11.44;62.36
73833;SHT30;62179;48.444;-4.464;2024-01-15T15:24:23;11.44;64.82
73833;SHT30;62179;48.444;-4.464;2024-01-15T15:26:49;11.40;63.86
73833;SHT30;62179;48.444;-4.464;2024-01-15T15:29:14;11.40;65.96
73833;SHT30;62179;48.444;-4.464;2024-01-15T15:31:42;11.35;64.89
73833;SHT30;62179;48.444;-4.464;2024-01-15T15:34:12;11.23;58.89
73833;SHT30;62179;48.444;-4.464;2024-01-15T15:36:38;11.10;60.43
73833;SHT30;62179;48.444;-4.464;2024-01-15T15:39:03;11.04;62.36
73833;SHT30;62179;48.444;-4.464;2024-01-15T15:41:29;11.07;65.21
73833;SHT30;62179;48.444;-4.464;2024-01-15T15:43:55;11.09;64.45
73833;SHT30;62179;48.444;-4.464;2024-01-15T15:46:20;11.13;65.06
73833;SHT30;62179;48.444;-4.464;2024-01-15T15:48:46;11.13;62.63
73833;SHT30;62179;48.444;-4.464;2024-01-15T15:51:11;11.00;60.67
73833;SHT30;62179;48.444;-4.464;2024-01-15T15:53:37;10.88;62.24
73833;SHT30;62179;48.444;-4.464;2024-01-15T15:56:03;10.82;61.00
73833;SHT30;62179;48.444;-4.464;2024-01-15T15:58:29;10.73;62.81
73833;SHT30;62179;48.444;-4.464;2024-01-15T16:00:54;10.61;62.21
73833;SHT30;62179;48.444;-4.464;2024-01-15T16:03:20;10.58;62.22
73833;SHT30;62179;48.444;-4.464;2024-01-15T16:05:47;10.58;64.34
73833;SHT30;62179;48.444;-4.464;2024-01-15T16:08:13;10.56;65.24
73833;SHT30;62179;48.444;-4.464;2024-01-15T16:10:39;10.52;64.69
73833;SHT30;62179;48.444;-4.464;2024-01-15T16:13:04;10.49;63.40
73833;SHT30;62179;48.444;-4.464;2024-01-15T16:15:30;10.41;66.30
73833;SHT30;62179;48.444;-4.464;2024-01-15T16:17:56;10.32;62.87
73833;SHT30;62179;48.444;-4.464;2024-01-15T16:20:21;10.32;67.47
73833;SHT30;62179;48.444;-4.464;2024-01-15T16:22:47;10.30;67.32
73833;SHT30;62179;48.444;-4.464;2024-01-15T16:25:15;10.32;65.55
73833;SHT30;62179;48.444;-4.464;2024-01-15T16:27:41;10.24;65.69
73833;SHT30;62179;48.444;-4.464;2024-01-15T16:30:15;10.14;63.71
73833;SHT30;62179;48.444;-4.464;2024-01-15T16:32:40;10.08;66.49
73833;SHT30;62179;48.444;-4.464;2024-01-15T16:35:06;10.10;68.31
73833;SHT30;62179;48.444;-4.464;2024-01-15T16:37:32;10.10;67.71
73833;SHT30;62179;48.444;-4.464;2024-01-15T16:39:57;10.10;67.25
73833;SHT30;62179;48.444;-4.464;2024-01-15T16:42:23;10.05;68.20
73833;SHT30;62179;48.444;-4.464;2024-01-15T16:44:49;10.00;67.15
73833;SHT30;62179;48.444;-4.464;2024-01-15T16:47:15;9.95;67.00
73833;SHT30;62179;48.444;-4.464;2024-01-15T16:49:41;9.89;65.43
73833;SHT30;62179;48.444;-4.464;2024-01-15T16:52:07;9.82;65.66
73833;SHT30;62179;48.444;-4.464;2024-01-15T16:54:32;9.79;68.62
73833;SHT30;62179;48.444;-4.464;2024-01-15T16:56:58;9.79;67.19
73833;SHT30;62179;48.444;-4.464;2024-01-15T16:59:25;9.70;65.22
73833;SHT30;62179;48.444;-4.464;2024-01-15T17:01:51;9.66;67.16
73833;SHT30;62179;48.444;-4.464;2024-01-15T17:04:16;9.63;67.91
73833;SHT30;62179;48.444;-4.464;2024-01-15T17:06:42;9.60;66.00
73833;SHT30;62179;48.444;-4.464;2024-01-15T17:09:07;9.57;67.39
73833;SHT30;62179;48.444;-4.464;2024-01-15T17:11:33;9.55;68.31
73833;SHT30;62179;48.444;-4.464;2024-01-15T17:13:58;9.49;67.69
73833;SHT30;62179;48.444;-4.464;2024-01-15T17:16:24;9.46;67.92
73833;SHT30;62179;48.444;-4.464;2024-01-15T17:18:50;9.40;67.37
73833;SHT30;62179;48.444;-4.464;2024-01-15T17:21:15;9.38;65.85
73833;SHT30;62179;48.444;-4.464;2024-01-15T17:23:41;9.29;68.09
73833;SHT30;62179;48.444;-4.464;2024-01-15T17:26:06;9.25;64.66
73833;SHT30;62179;48.444;-4.464;2024-01-15T17:28:32;9.16;63.69
73833;SHT30;62179;48.444;-4.464;2024-01-15T17:30:58;9.11;66.11
73833;SHT30;62179;48.444;-4.464;2024-01-15T17:33:24;9.07;64.36
73833;SHT30;62179;48.444;-4.464;2024-01-15T17:35:54;9.03;63.72
73833;SHT30;62179;48.444;-4.464;2024-01-15T17:38:20;8.95;63.92
73833;SHT30;62179;48.444;-4.464;2024-01-15T17:40:46;8.91;65.56
73833;SHT30;62179;48.444;-4.464;2024-01-15T17:43:11;8.88;65.10
73833;SHT30;62179;48.444;-4.464;2024-01-15T17:45:37;8.81;63.91
73833;SHT30;62179;48.444;-4.464;2024-01-15T17:48:04;8.81;66.66
73833;SHT30;62179;48.444;-4.464;2024-01-15T17:50:29;8.80;67.90
73833;SHT30;62179;48.444;-4.464;2024-01-15T17:52:55;8.77;64.16
73833;SHT30;62179;48.444;-4.464;2024-01-15T17:55:22;8.70;64.88
73833;SHT30;62179;48.444;-4.464;2024-01-15T17:57:49;8.63;65.61
73833;SHT30;62179;48.444;-4.464;2024-01-15T18:00:17;8.59;64.40
73833;SHT30;62179;48.444;-4.464;2024-01-15T18:02:43;8.49;63.83
73833;SHT30;62179;48.444;-4.464;2024-01-15T18:05:09;8.37;63.40
73833;SHT30;62179;48.444;-4.464;2024-01-15T18:07:35;8.33;64.90
73833;SHT30;62179;48.444;-4.464;2024-01-15T18:10:00;8.33;66.82
73833;SHT30;62179;48.444;-4.464;2024-01-15T18:12:26;8.25;62.99
73833;SHT30;62179;48.444;-4.464;2024-01-15T18:14:54;8.12;62.90
73833;SHT30;62179;48.444;-4.464;2024-01-15T18:17:20;8.08;65.67
73833;SHT30;62179;48.444;-4.464;2024-01-15T18:19:48;8.03;62.91
73833;SHT30;62179;48.444;-4.464;2024-01-15T18:22:14;8.03;64.13
73833;SHT30;62179;48.444;-4.464;2024-01-15T18:24:40;7.98;62.45
73833;SHT30;62179;48.444;-4.464;2024-01-15T18:27:06;7.95;63.63
73833;SHT30;62179;48.444;-4.464;2024-01-15T18:29:33;7.95;63.06
73833;SHT30;62179;48.444;-4.464;2024-01-15T18:31:59;7.91;64.07
73833;SHT30;62179;48.444;-4.464;2024-01-15T18:34:25;7.87;63.33
73833;SHT30;62179;48.444;-4.464;2024-01-15T18:36:51;7.82;62.93
73833;SHT30;62179;48.444;-4.464;2024-01-15T18:39:16;7.75;62.36
73833;SHT30;62179;48.444;-4.464;2024-01-15T18:41:45;7.75;62.97
73833;SHT30;62179;48.444;-4.464;2024-01-15T18:44:11;7.75;63.07
73833;SHT30;62179;48.444;-4.464;2024-01-15T18:46:37;7.75;62.90
73833;SHT30;62179;48.444;-4.464;2024-01-15T18:49:05;7.75;64.90
73833;SHT30;62179;48.444;-4.464;2024-01-15T18:51:31;7.78;66.22
73833;SHT30;62179;48.444;-4.464;2024-01-15T18:53:57;7.85;67.67
73833;SHT30;62179;48.444;-4.464;2024-01-15T18:56:22;7.87;62.29
73833;SHT30;62179;48.444;-4.464;2024-01-15T18:58:48;7.84;63.12
73833;SHT30;62179;48.444;-4.464;2024-01-15T19:01:31;7.68;63.46
73833;SHT30;62179;48.444;-4.464;2024-01-15T19:03:57;7.63;63.07
73833;SHT30;62179;48.444;-4.464;2024-01-15T19:06:23;7.60;63.28
73833;SHT30;62179;48.444;-4.464;2024-01-15T19:08:50;7.56;65.14
73833;SHT30;62179;48.444;-4.464;2024-01-15T19:11:16;7.56;63.22
73833;SHT30;62179;48.444;-4.464;2024-01-15T19:13:42;7.60;62.95
73833;SHT30;62179;48.444;-4.464;2024-01-15T19:16:07;7.57;63.37
73833;SHT30;62179;48.444;-4.464;2024-01-15T19:18:33;7.57;62.93
73833;SHT30;62179;48.444;-4.464;2024-01-15T19:21:00;7.50;62.88
73833;SHT30;62179;48.444;-4.464;2024-01-15T19:23:25;7.47;62.45
73833;SHT30;62179;48.444;-4.464;2024-01-15T19:25:51;7.42;63.22
73833;SHT30;62179;48.444;-4.464;2024-01-15T19:28:16;7.42;62.71
73833;SHT30;62179;48.444;-4.464;2024-01-15T19:30:42;7.43;63.07
73833;SHT30;62179;48.444;-4.464;2024-01-15T19:33:08;7.43;63.39
73833;SHT30;62179;48.444;-4.464;2024-01-15T19:35:33;7.46;63.33
73833;SHT30;62179;48.444;-4.464;2024-01-15T19:37:59;7.47;63.76
73833;SHT30;62179;48.444;-4.464;2024-01-15T19:40:27;7.50;62.82
73833;SHT30;62179;48.444;-4.464;2024-01-15T19:42:52;7.44;62.75
73833;SHT30;62179;48.444;-4.464;2024-01-15T19:45:18;7.43;63.53
73833;SHT30;62179;48.444;-4.464;2024-01-15T19:47:44;7.44;62.29
73833;SHT30;62179;48.444;-4.464;2024-01-15T19:50:09;7.37;62.98
73833;SHT30;62179;48.444;-4.464;2024-01-15T19:52:35;7.34;62.52
73833;SHT30;62179;48.444;-4.464;2024-01-15T19:55:00;7.24;62.33
73833;SHT30;62179;48.444;-4.464;2024-01-15T19:57:26;7.27;63.96
73833;SHT30;62179;48.444;-4.464;2024-01-15T19:59:51;7.29;64.38
73833;SHT30;62179;48.444;-4.464;2024-01-15T20:02:20;7.29;62.86
73833;SHT30;62179;48.444;-4.464;2024-01-15T20:04:47;7.33;62.25
73833;SHT30;62179;48.444;-4.464;2024-01-15T20:07:12;7.31;62.17
73833;SHT30;62179;48.444;-4.464;2024-01-15T20:09:38;7.29;62.64
73833;SHT30;62179;48.444;-4.464;2024-01-15T20:12:04;7.26;62.12
73833;SHT30;62179;48.444;-4.464;2024-01-15T20:14:31;7.22;62.55
73833;SHT30;62179;48.444;-4.464;2024-01-15T20:16:57;7.23;63.45
73833;SHT30;62179;48.444;-4.464;2024-01-15T20:19:24;7.19;62.66
73833;SHT30;62179;48.444;-4.464;2024-01-15T20:21:49;7.16;62.76
73833;SHT30;62179;48.444;-4.464;2024-01-15T20:24:15;7.15;62.38
73833;SHT30;62179;48.444;-4.464;2024-01-15T20:26:43;7.16;63.46
73833;SHT30;62179;48.444;-4.464;2024-01-15T20:29:08;7.19;63.75
73833;SHT30;62179;48.444;-4.464;2024-01-15T20:31:34;7.15;62.40
73833;SHT30;62179;48.444;-4.464;2024-01-15T20:34:03;7.15;62.79
73833;SHT30;62179;48.444;-4.464;2024-01-15T20:36:30;7.19;64.12
73833;SHT30;62179;48.444;-4.464;2024-01-15T20:38:59;7.22;62.31
73833;SHT30;62179;48.444;-4.464;2024-01-15T20:41:25;7.23;63.16
73833;SHT30;62179;48.444;-4.464;2024-01-15T20:43:51;7.26;63.85
73833;SHT30;62179;48.444;-4.464;2024-01-15T20:46:17;7.30;62.60
73833;SHT30;62179;48.444;-4.464;2024-01-15T20:48:43;7.31;65.65
73833;SHT30;62179;48.444;-4.464;2024-01-15T20:51:11;7.33;63.01
73833;SHT30;62179;48.444;-4.464;2024-01-15T20:53:39;7.38;62.98
73833;SHT30;62179;48.444;-4.464;2024-01-15T20:56:06;7.34;62.59
73833;SHT30;62179;48.444;-4.464;2024-01-15T20:58:32;7.33;63.18
73833;SHT30;62179;48.444;-4.464;2024-01-15T21:00:57;7.44;63.53
73833;SHT30;62179;48.444;-4.464;2024-01-15T21:03:23;7.37;62.79
73833;SHT30;62179;48.444;-4.464;2024-01-15T21:05:49;7.33;62.56
73833;SHT30;62179;48.444;-4.464;2024-01-15T21:08:15;7.33;62.68
73833;SHT30;62179;48.444;-4.464;2024-01-15T21:10:40;7.37;63.12
73833;SHT30;62179;48.444;-4.464;2024-01-15T21:13:06;7.36;63.27
73833;SHT30;62179;48.444;-4.464;2024-01-15T21:15:32;7.40;63.76
73833;SHT30;62179;48.444;-4.464;2024-01-15T21:17:58;7.38;63.24
73833;SHT30;62179;48.444;-4.464;2024-01-15T21:20:25;7.36;63.04
73833;SHT30;62179;48.444;-4.464;2024-01-15T21:22:52;7.36;66.90
73833;SHT30;62179;48.444;-4.464;2024-01-15T21:25:18;7.38;66.28
73833;SHT30;62179;48.444;-4.464;2024-01-15T21:27:43;7.34;67.44
73833;SHT30;62179;48.444;-4.464;2024-01-15T21:30:11;7.34;65.87
73833;SHT30;62179;48.444;-4.464;2024-01-15T21:32:37;7.30;65.94
73833;SHT30;62179;48.444;-4.464;2024-01-15T21:35:05;7.24;66.22
73833;SHT30;62179;48.444;-4.464;2024-01-15T21:37:30;7.23;66.61
73833;SHT30;62179;48.444;-4.464;2024-01-15T21:39:57;7.19;66.14
73833;SHT30;62179;48.444;-4.464;2024-01-15T21:42:22;7.15;67.57
73833;SHT30;62179;48.444;-4.464;2024-01-15T21:44:48;7.10;66.30
73833;SHT30;62179;48.444;-4.464;2024-01-15T21:47:13;7.06;66.37
73833;SHT30;62179;48.444;-4.464;2024-01-15T21:49:41;7.02;67.99
73833;SHT30;62179;48.444;-4.464;2024-01-15T21:52:06;6.96;67.05
73833;SHT30;62179;48.444;-4.464;2024-01-15T21:54:32;6.93;68.95
73833;SHT30;62179;48.444;-4.464;2024-01-15T21:56:57;6.91;67.91
73833;SHT30;62179;48.444;-4.464;2024-01-15T21:59:23;6.85;66.72
73833;SHT30;62179;48.444;-4.464;2024-01-15T22:01:49;6.79;67.54
73833;SHT30;62179;48.444;-4.464;2024-01-15T22:04:20;6.72;66.89
73833;SHT30;62179;48.444;-4.464;2024-01-15T22:06:46;6.71;67.67
73833;SHT30;62179;48.444;-4.464;2024-01-15T22:09:12;6.71;68.23
73833;SHT30;62179;48.444;-4.464;2024-01-15T22:11:37;6.67;68.66
73833;SHT30;62179;48.444;-4.464;2024-01-15T22:14:02;6.61;69.22
73833;SHT30;62179;48.444;-4.464;2024-01-15T22:16:29;6.64;68.41
73833;SHT30;62179;48.444;-4.464;2024-01-15T22:18:55;6.61;70.21
73833;SHT30;62179;48.444;-4.464;2024-01-15T22:21:20;6.61;69.37
73833;SHT30;62179;48.444;-4.464;2024-01-15T22:23:46;6.64;68.88
73833;SHT30;62179;48.444;-4.464;2024-01-15T22:26:11;6.63;70.73
73833;SHT30;62179;48.444;-4.464;2024-01-15T22:28:39;6.68;71.60
73833;SHT30;62179;48.444;-4.464;2024-01-15T22:31:04;6.72;68.77
73833;SHT30;62179;48.444;-4.464;2024-01-15T22:33:30;6.67;68.43
73833;SHT30;62179;48.444;-4.464;2024-01-15T22:35:55;6.68;70.80
73833;SHT30;62179;48.444;-4.464;2024-01-15T22:38:21;6.69;68.74
73833;SHT30;62179;48.444;-4.464;2024-01-15T22:40:47;6.71;70.33
73833;SHT30;62179;48.444;-4.464;2024-01-15T22:43:12;6.72;69.17
73833;SHT30;62179;48.444;-4.464;2024-01-15T22:45:38;6.75;70.41
73833;SHT30;62179;48.444;-4.464;2024-01-15T22:48:03;6.77;70.55
73833;SHT30;62179;48.444;-4.464;2024-01-15T22:50:29;6.75;69.44
73833;SHT30;62179;48.444;-4.464;2024-01-15T22:52:54;6.75;70.07
73833;SHT30;62179;48.444;-4.464;2024-01-15T22:55:20;6.71;68.19
73833;SHT30;62179;48.444;-4.464;2024-01-15T22:57:45;6.75;69.56
73833;SHT30;62179;48.444;-4.464;2024-01-15T23:00:11;6.78;68.42
73833;SHT30;62179;48.444;-4.464;2024-01-15T23:02:44;6.81;69.05
73833;SHT30;62179;48.444;-4.464;2024-01-15T23:05:10;6.84;69.29
73833;SHT30;62179;48.444;-4.464;2024-01-15T23:07:35;6.88;69.45
73833;SHT30;62179;48.444;-4.464;2024-01-15T23:10:01;6.88;71.02
73833;SHT30;62179;48.444;-4.464;2024-01-15T23:12:26;6.89;70.11
73833;SHT30;62179;48.444;-4.464;2024-01-15T23:14:52;6.92;70.38
73833;SHT30;62179;48.444;-4.464;2024-01-15T23:17:17;6.92;69.94
73833;SHT30;62179;48.444;-4.464;2024-01-15T23:19:43;6.89;69.65
73833;SHT30;62179;48.444;-4.464;2024-01-15T23:22:08;6.89;68.11
73833;SHT30;62179;48.444;-4.464;2024-01-15T23:24:34;6.87;67.67
73833;SHT30;62179;48.444;-4.464;2024-01-15T23:26:59;6.84;68.08
73833;SHT30;62179;48.444;-4.464;2024-01-15T23:29:25;6.87;69.13
73833;SHT30;62179;48.444;-4.464;2024-01-15T23:31:50;6.87;69.04
73833;SHT30;62179;48.444;-4.464;2024-01-15T23:34:16;6.84;69.08
73833;SHT30;62179;48.444;-4.464;2024-01-15T23:36:42;6.85;70.58
73833;SHT30;62179;48.444;-4.464;2024-01-15T23:39:08;6.84;69.29
73833;SHT30;62179;48.444;-4.464;2024-01-15T23:41:33;6.85;70.74
73833;SHT30;62179;48.444;-4.464;2024-01-15T23:44:01;6.87;70.81
73833;SHT30;62179;48.444;-4.464;2024-01-15T23:46:30;6.89;69.29
73833;SHT30;62179;48.444;-4.464;2024-01-15T23:48:55;6.88;70.91
73833;SHT30;62179;48.444;-4.464;2024-01-15T23:51:20;6.85;69.23
73833;SHT30;62179;48.444;-4.464;2024-01-15T23:53:47;6.82;69.38
73833;SHT30;62179;48.444;-4.464;2024-01-15T23:56:12;6.79;69.39
73833;SHT30;62179;48.444;-4.464;2024-01-15T23:58:39;6.74;68.44
